createdAt,value
2022-10-17T00:00:57.173Z,5.40
2022-10-17T00:03:23.901Z,4.97
2022-10-17T00:05:50.567Z,5.75
2022-10-17T00:08:18.305Z,5.20
2022-10-17T00:10:45.972Z,5.13
2022-10-17T00:13:15.685Z,5.72
2022-10-17T00:15:44.914Z,5.55
2022-10-17T00:18:11.660Z,4.93
2022-10-17T00:20:38.417Z,5.65
2022-10-17T00:23:05.049Z,6.07
2022-10-17T00:25:31.886Z,5.40
2022-10-17T00:27:58.567Z,5.38
2022-10-17T00:30:25.159Z,5.80
2022-10-17T00:32:51.872Z,5.60
2022-10-17T00:35:18.667Z,5.30
2022-10-17T00:37:45.378Z,5.32
2022-10-17T00:40:12.178Z,5.13
2022-10-17T00:42:38.824Z,5.82
2022-10-17T00:45:11.687Z,5.50
2022-10-17T00:47:38.763Z,5.85
2022-10-17T00:50:07.184Z,5.50
2022-10-17T00:52:35.364Z,5.97
2022-10-17T00:55:13.951Z,5.15
2022-10-17T00:57:41.535Z,5.70
2022-10-17T01:00:10.150Z,5.60
2022-10-17T01:02:37.230Z,5.10
2022-10-17T01:05:04.357Z,5.40
2022-10-17T01:07:34.709Z,5.45
2022-10-17T01:10:07.057Z,5.65
2022-10-17T01:13:15.268Z,5.45
2022-10-17T01:16:03.612Z,5.32
2022-10-17T01:18:48.902Z,5.65
2022-10-17T01:21:31.756Z,5.38
2022-10-17T01:24:41.651Z,5.35
2022-10-17T01:27:30.321Z,5.28
2022-10-17T01:31:11.318Z,5.13
2022-10-17T01:34:12.763Z,5.22
2022-10-17T01:37:19.434Z,5.22
2022-10-17T01:40:00.440Z,5.38
2022-10-17T01:42:35.996Z,5.45
2022-10-17T01:45:23.244Z,5.78
2022-10-17T01:47:53.641Z,5.25
2022-10-17T01:50:28.197Z,5.97
2022-10-17T01:53:19.746Z,5.45
2022-10-17T01:55:49.938Z,5.20
2022-10-17T01:58:24.992Z,5.68
2022-10-17T02:00:53.381Z,5.05
2022-10-17T02:03:25.811Z,5.55
2022-10-17T02:05:52.658Z,5.93
2022-10-17T02:08:29.732Z,5.90
2022-10-17T02:11:02.417Z,5.60
2022-10-17T02:13:38.117Z,5.93
2022-10-17T02:16:31.222Z,5.00
2022-10-17T02:19:20.973Z,5.60
2022-10-17T02:21:53.381Z,5.05
2022-10-17T02:24:35.067Z,5.20
2022-10-17T02:27:29.231Z,5.53
2022-10-17T02:30:05.772Z,5.20
2022-10-17T02:32:55.725Z,5.47
2022-10-17T02:37:53.539Z,5.30
2022-10-17T02:40:23.966Z,5.07
2022-10-17T02:42:52.592Z,6.35
2022-10-17T02:45:19.706Z,5.57
2022-10-17T02:47:54.100Z,5.43
2022-10-17T02:53:01.268Z,5.53
2022-10-17T02:55:35.252Z,5.85
2022-10-17T02:58:08.863Z,6.07
2022-10-17T03:00:35.590Z,5.97
2022-10-17T03:03:17.921Z,5.30
2022-10-17T03:05:47.027Z,5.80
2022-10-17T03:08:13.683Z,5.63
2022-10-17T03:10:40.334Z,5.53
2022-10-17T03:13:06.918Z,4.90
2022-10-17T03:15:33.479Z,4.97
2022-10-17T03:18:00.139Z,5.13
2022-10-17T03:20:26.981Z,5.63
2022-10-17T03:22:53.648Z,5.18
2022-10-17T03:25:20.518Z,5.88
2022-10-17T03:27:47.274Z,5.78
2022-10-17T03:30:13.883Z,5.38
2022-10-17T03:32:40.498Z,5.75
2022-10-17T03:35:08.408Z,5.03
2022-10-17T03:37:37.901Z,6.18
2022-10-17T03:40:04.872Z,5.70
2022-10-17T03:42:32.275Z,5.60
2022-10-17T03:44:58.822Z,5.40
2022-10-17T03:47:25.493Z,5.15
2022-10-17T03:49:53.694Z,5.90
2022-10-17T03:52:20.340Z,4.85
2022-10-17T03:54:46.936Z,5.07
2022-10-17T03:57:13.553Z,5.07
2022-10-17T03:59:40.131Z,5.93
2022-10-17T04:02:06.707Z,5.10
2022-10-17T04:04:33.314Z,5.43
2022-10-17T04:06:59.941Z,5.43
2022-10-17T04:09:26.725Z,6.15
2022-10-17T04:11:53.594Z,5.28
2022-10-17T04:14:20.633Z,5.30
2022-10-17T04:16:47.309Z,5.40
2022-10-17T04:19:14.295Z,5.45
2022-10-17T04:21:40.867Z,5.68
2022-10-17T04:24:10.910Z,5.28
2022-10-17T04:26:37.723Z,5.20
2022-10-17T04:29:04.427Z,5.25
2022-10-17T04:31:31.038Z,5.00
2022-10-17T04:33:57.651Z,5.22
2022-10-17T04:36:24.279Z,5.40
2022-10-17T04:38:50.955Z,4.95
2022-10-17T04:41:18.888Z,5.53
2022-10-17T04:43:48.629Z,5.05
2022-10-17T04:46:17.775Z,5.55
2022-10-17T04:48:45.224Z,5.60
2022-10-17T04:51:14.836Z,5.75
2022-10-17T04:53:47.799Z,5.18
2022-10-17T04:56:21.281Z,5.78
2022-10-17T04:58:48.478Z,5.57
2022-10-17T05:01:17.959Z,5.65
2022-10-17T05:06:21.587Z,5.65
2022-10-17T05:08:50.485Z,5.18
2022-10-17T05:11:25.661Z,5.78
2022-10-17T05:14:10.879Z,5.55
2022-10-17T05:16:37.526Z,5.60
2022-10-17T05:19:04.105Z,5.80
2022-10-17T05:21:30.771Z,5.63
2022-10-17T05:23:57.775Z,5.07
2022-10-17T05:26:24.475Z,5.00
2022-10-17T05:29:09.424Z,5.18
2022-10-17T05:31:36.263Z,5.25
2022-10-17T05:34:04.202Z,5.13
2022-10-17T05:36:31.082Z,5.25
2022-10-17T05:38:58.254Z,5.30
2022-10-17T05:41:25.013Z,5.22
2022-10-17T05:43:51.724Z,5.95
2022-10-17T05:46:29.170Z,5.65
2022-10-17T05:48:56.232Z,5.13
2022-10-17T05:51:22.843Z,4.63
2022-10-17T05:53:49.424Z,5.20
2022-10-17T05:56:16.114Z,4.90
2022-10-17T05:58:55.190Z,5.15
2022-10-17T06:01:24.658Z,5.55
2022-10-17T06:03:57.957Z,5.05
2022-10-17T06:06:24.869Z,5.45
2022-10-17T06:08:58.675Z,5.43
2022-10-17T06:11:25.540Z,5.15
2022-10-17T06:13:58.450Z,5.22
2022-10-17T06:16:25.289Z,4.93
2022-10-17T06:18:52.108Z,4.65
2022-10-17T06:21:28.802Z,4.70
2022-10-17T06:23:55.319Z,5.15
2022-10-17T06:26:21.983Z,4.80
2022-10-17T06:28:48.715Z,5.18
2022-10-17T06:31:17.836Z,4.97
2022-10-17T06:33:49.724Z,5.18
2022-10-17T06:36:29.075Z,5.68
2022-10-17T06:38:55.582Z,4.78
2022-10-17T06:41:22.139Z,5.18
2022-10-17T06:44:13.305Z,5.30
2022-10-17T06:46:40.502Z,4.70
2022-10-17T06:49:07.551Z,4.47
2022-10-17T06:51:37.922Z,5.03
2022-10-17T06:54:04.956Z,4.70
2022-10-17T06:56:31.684Z,4.93
2022-10-17T06:59:00.646Z,4.88
2022-10-17T07:01:34.381Z,4.68
2022-10-17T07:04:01.279Z,4.78
2022-10-17T07:06:31.154Z,4.70
2022-10-17T07:08:58.359Z,4.47
2022-10-17T07:11:29.990Z,4.78
2022-10-17T07:13:56.513Z,4.70
2022-10-17T07:16:23.149Z,4.97
2022-10-17T07:18:54.545Z,4.70
2022-10-17T07:21:21.069Z,4.35
2022-10-17T07:23:47.644Z,4.20
2022-10-17T07:26:16.587Z,5.05
2022-10-17T07:28:47.250Z,5.20
2022-10-17T07:31:17.216Z,5.40
2022-10-17T07:33:47.856Z,6.53
2022-10-17T07:36:15.452Z,5.15
2022-10-17T07:38:42.618Z,5.07
2022-10-17T07:41:11.655Z,5.43
2022-10-17T07:43:42.876Z,4.72
2022-10-17T07:46:11.133Z,4.63
2022-10-17T07:48:40.788Z,4.70
2022-10-17T07:51:09.739Z,5.60
2022-10-17T07:53:42.652Z,5.15
2022-10-17T07:56:41.850Z,5.25
2022-10-17T07:59:10.903Z,4.85
2022-10-17T08:01:37.934Z,5.65
2022-10-17T08:04:17.802Z,5.18
2022-10-17T08:11:23.417Z,5.50
2022-10-17T08:19:34.624Z,4.75
2022-10-17T08:24:53.797Z,4.38
2022-10-17T08:30:09.322Z,4.15
2022-10-17T08:32:41.247Z,4.68
2022-10-17T08:35:21.173Z,4.57
2022-10-17T08:38:20.963Z,4.78
2022-10-17T08:41:22.861Z,4.10
2022-10-17T08:44:58.081Z,4.72
2022-10-17T11:31:12.884Z,3.58
2022-10-17T11:34:11.149Z,3.65
2022-10-17T11:36:44.141Z,4.38
2022-10-17T11:39:31.010Z,3.60
2022-10-17T11:42:18.711Z,3.60
2022-10-17T11:48:09.825Z,3.75
2022-10-17T11:54:00.041Z,3.45
2022-10-17T11:56:59.435Z,3.38
2022-10-17T12:00:22.497Z,3.45
2022-10-17T12:20:04.602Z,3.53
2022-10-17T12:23:39.616Z,3.55
2022-10-17T17:14:06.775Z,3.67
2022-10-17T17:16:39.598Z,3.67
2022-10-17T17:19:08.896Z,4.00
2022-10-17T17:21:57.453Z,4.30
2022-10-17T17:27:53.470Z,3.90
2022-10-17T17:34:11.072Z,3.38
2022-10-17T17:36:40.179Z,4.10
2022-10-17T17:39:10.781Z,4.72
2022-10-17T17:41:37.897Z,4.20
2022-10-17T17:44:05.306Z,4.30
2022-10-17T17:46:33.314Z,4.80
2022-10-17T17:49:00.193Z,4.95
2022-10-17T17:51:29.483Z,4.68
2022-10-17T17:53:56.964Z,4.55
2022-10-17T17:56:25.868Z,3.80
2022-10-17T17:59:00.326Z,4.43
2022-10-17T18:01:29.580Z,4.80
2022-10-17T18:04:11.948Z,4.43
2022-10-17T18:06:39.647Z,4.72
2022-10-17T18:09:07.373Z,4.20
2022-10-17T18:11:36.614Z,4.18
2022-10-17T18:14:06.759Z,3.50
2022-10-17T18:16:35.285Z,3.85
2022-10-17T18:19:07.300Z,3.77
2022-10-17T18:21:44.524Z,3.35
2022-10-17T18:24:21.229Z,3.72
2022-10-17T18:26:48.909Z,3.25
2022-10-17T18:29:17.164Z,3.63
2022-10-17T18:31:48.744Z,3.85
2022-10-17T18:34:18.645Z,3.55
2022-10-17T18:36:52.771Z,3.78
2022-10-17T18:39:19.582Z,3.95
2022-10-17T18:41:46.802Z,4.45
2022-10-17T18:44:15.619Z,3.70
2022-10-17T18:46:42.765Z,3.47
2022-10-17T18:49:11.539Z,3.42
2022-10-17T18:51:38.819Z,3.97
2022-10-17T18:54:07.900Z,4.00
2022-10-17T18:56:34.847Z,3.90
2022-10-17T18:59:01.621Z,3.67
2022-10-17T19:01:28.456Z,4.10
2022-10-17T19:03:58.157Z,3.85
2022-10-17T19:06:36.073Z,3.67
2022-10-17T19:09:07.981Z,4.22
2022-10-17T19:11:37.527Z,4.05
2022-10-17T19:16:38.547Z,3.45
2022-10-17T19:19:17.555Z,3.30
2022-10-17T19:21:44.593Z,3.20
2022-10-17T19:24:19.371Z,4.22
2022-10-17T19:26:47.136Z,3.78
2022-10-17T19:29:15.338Z,3.75
2022-10-17T19:31:42.382Z,3.80
2022-10-17T19:34:10.612Z,3.83
2022-10-17T19:36:38.065Z,3.90
2022-10-17T19:39:07.274Z,3.67
2022-10-17T19:41:40.647Z,3.63
2022-10-17T19:44:10.373Z,3.60
2022-10-17T19:46:37.166Z,4.07
2022-10-17T19:49:04.636Z,3.78
2022-10-17T19:51:31.174Z,3.90
2022-10-17T19:54:02.901Z,3.72
2022-10-17T19:56:31.538Z,3.88
2022-10-17T19:58:58.891Z,3.70
2022-10-17T20:01:29.218Z,3.88
2022-10-17T20:04:02.866Z,4.00
